^^
Your Local Weather - Clay, NY Station Historical Data
Daily Summary for January 16, 2017 Units:  English    Metric   Both
« Previous Day
Next Day »
Daily Weekly Monthly Yearly Custom
  High: Low: Average:
Temperature: 39.8 °F 17.5 °F 25.8 °F
Dew Point: 23.7 °F 14.6 °F 19.1 °F
Humidity: 89% 40% 76%
Wind Speed: 2.0mph 0.0mph 0.1mph
Wind Gust: 4.0mph - -
Wind- - SW
Pressure: 30.39 in 30.22 in -
Precipitation: 0.00 in    
Historical Graphs
 
 
Tabular Data for January 16, 2017
Time Temperature Dew Point Pressure Wind Wind Speed Wind Gust Humidity Rainfall Rate (Hourly) solar
00:00 26.9 °F 18.4 °F 30.38 in Calm     70% 0.00 in 0 W/m2
00:06 26.4 °F 18.6 °F 30.38 in Calm     72% 0.00 in 0 W/m2
00:12 26.1 °F 18.3 °F 30.38 in Calm     72% 0.00 in 0 W/m2
00:18 25.7 °F 18.2 °F 30.38 in Calm   1.0 mph 73% 0.00 in 0 W/m2
00:24 25.5 °F 18.4 °F 30.38 in Calm     74% 0.00 in 0 W/m2
00:30 25.0 °F 17.9 °F 30.38 in Calm     74% 0.00 in 0 W/m2
00:36 24.6 °F 18.1 °F 30.38 in Calm     76% 0.00 in 0 W/m2
00:42 24.6 °F 18.1 °F 30.38 in Calm     76% 0.00 in 0 W/m2
00:48 24.4 °F 17.9 °F 30.38 in Calm     76% 0.00 in 0 W/m2
00:54 24.2 °F 17.7 °F 30.38 in Calm     76% 0.00 in 0 W/m2
01:00 24.0 °F 17.8 °F 30.37 in Calm     77% 0.00 in 0 W/m2
01:06 23.8 °F 17.6 °F 30.37 in Calm     77% 0.00 in 0 W/m2
01:12 23.8 °F 17.9 °F 30.37 in Calm     78% 0.00 in 0 W/m2
01:18 23.7 °F 17.8 °F 30.38 in Calm     78% 0.00 in 0 W/m2
01:24 23.7 °F 17.8 °F 30.38 in Calm   1.0 mph 78% 0.00 in 0 W/m2
01:30 23.8 °F 17.9 °F 30.38 in Calm     78% 0.00 in 0 W/m2
01:36 23.9 °F 18.0 °F 30.38 in Calm     78% 0.00 in 0 W/m2
01:42 23.9 °F 18.0 °F 30.38 in Calm     78% 0.00 in 0 W/m2
01:48 24.0 °F 17.8 °F 30.38 in Calm     77% 0.00 in 0 W/m2
01:54 24.1 °F 17.9 °F 30.39 in Calm   1.0 mph 77% 0.00 in 0 W/m2
02:00 24.1 °F 17.9 °F 30.39 in Calm   1.0 mph 77% 0.00 in 0 W/m2
02:06 24.1 °F 17.9 °F 30.39 in Calm   1.0 mph 77% 0.00 in 0 W/m2
02:12 24.0 °F 17.8 °F 30.39 in Calm     77% 0.00 in 0 W/m2
02:18 23.8 °F 17.6 °F 30.39 in Calm   1.0 mph 77% 0.00 in 0 W/m2
02:24 23.7 °F 17.5 °F 30.39 in Calm   1.0 mph 77% 0.00 in 0 W/m2
02:30 23.3 °F 17.5 °F 30.39 in Calm   2.0 mph 78% 0.00 in 0 W/m2
02:36 23.2 °F 17.4 °F 30.39 in Calm   2.0 mph 78% 0.00 in 0 W/m2
02:42 23.0 °F 17.2 °F 30.39 in Calm     78% 0.00 in 0 W/m2
02:48 22.6 °F 17.1 °F 30.39 in Calm     79% 0.00 in 0 W/m2
02:54 22.2 °F 17.0 °F 30.39 in Calm     80% 0.00 in 0 W/m2
03:00 22.0 °F 16.8 °F 30.39 in Calm     80% 0.00 in 0 W/m2
03:06 21.8 °F 16.6 °F 30.39 in Calm     80% 0.00 in 0 W/m2
03:12 21.6 °F 16.7 °F 30.39 in Calm     81% 0.00 in 0 W/m2
03:18 21.4 °F 16.5 °F 30.39 in Calm     81% 0.00 in 0 W/m2
03:24 21.2 °F 16.3 °F 30.39 in Calm     81% 0.00 in 0 W/m2
03:30 20.9 °F 16.3 °F 30.39 in Calm     82% 0.00 in 0 W/m2
03:36 20.8 °F 16.2 °F 30.38 in Calm     82% 0.00 in 0 W/m2
03:42 20.7 °F 16.4 °F 30.38 in Calm     83% 0.00 in 0 W/m2
03:48 20.6 °F 16.3 °F 30.37 in Calm     83% 0.00 in 0 W/m2
03:54 20.4 °F 16.1 °F 30.37 in Calm     83% 0.00 in 0 W/m2
04:00 20.3 °F 16.2 °F 30.37 in Calm     84% 0.00 in 0 W/m2
04:06 20.1 °F 16.0 °F 30.37 in Calm     84% 0.00 in 0 W/m2
04:12 20.0 °F 15.9 °F 30.37 in Calm     84% 0.00 in 0 W/m2
04:18 19.9 °F 16.1 °F 30.37 in Calm     85% 0.00 in 0 W/m2
04:24 19.7 °F 15.9 °F 30.37 in Calm     85% 0.00 in 0 W/m2
04:30 19.5 °F 15.7 °F 30.37 in Calm     85% 0.00 in 0 W/m2
04:36 19.3 °F 15.5 °F 30.37 in Calm     85% 0.00 in 0 W/m2
04:42 19.2 °F 15.4 °F 30.37 in Calm     85% 0.00 in 0 W/m2
04:48 19.2 °F 15.7 °F 30.36 in Calm     86% 0.00 in 0 W/m2
04:54 19.1 °F 15.6 °F 30.36 in Calm     86% 0.00 in 0 W/m2
05:00 19.0 °F 15.5 °F 30.36 in Calm     86% 0.00 in 0 W/m2
05:06 18.9 °F 15.4 °F 30.36 in Calm     86% 0.00 in 0 W/m2
05:12 19.1 °F 15.9 °F 30.36 in Calm     87% 0.00 in 0 W/m2
05:18 19.1 °F 15.9 °F 30.36 in Calm     87% 0.00 in 0 W/m2
05:24 18.8 °F 15.6 °F 30.36 in Calm     87% 0.00 in 0 W/m2
05:30 18.6 °F 15.1 °F 30.36 in Calm     86% 0.00 in 0 W/m2
05:36 18.4 °F 14.9 °F 30.37 in Calm     86% 0.00 in 0 W/m2
05:42 18.3 °F 14.8 °F 30.37 in Calm     86% 0.00 in 0 W/m2
05:48 18.2 °F 15.0 °F 30.37 in Calm     87% 0.00 in 0 W/m2
05:54 18.2 °F 15.0 °F 30.37 in Calm     87% 0.00 in 0 W/m2
06:00 18.1 °F 14.9 °F 30.37 in Calm     87% 0.00 in 0 W/m2
06:06 18.0 °F 14.8 °F 30.36 in Calm     87% 0.00 in 0 W/m2
06:12 17.9 °F 14.7 °F 30.36 in Calm     87% 0.00 in 0 W/m2
06:18 17.8 °F 14.6 °F 30.36 in Calm     87% 0.00 in 0 W/m2
06:24 17.8 °F 14.8 °F 30.36 in Calm   1.0 mph 88% 0.00 in 0 W/m2
06:30 17.8 °F 14.6 °F 30.36 in Calm     87% 0.00 in 0 W/m2
06:36 17.8 °F 14.8 °F 30.37 in Calm     88% 0.00 in 0 W/m2
06:42 17.7 °F 14.8 °F 30.37 in Calm     88% 0.00 in 0 W/m2
06:48 17.7 °F 14.8 °F 30.37 in Calm     88% 0.00 in 0 W/m2
06:54 17.8 °F 14.8 °F 30.37 in Calm     88% 0.00 in 0 W/m2
07:00 17.7 °F 14.8 °F 30.37 in Calm     88% 0.00 in 0 W/m2
07:06 17.7 °F 14.8 °F 30.37 in Calm     88% 0.00 in 0 W/m2
07:12 17.8 °F 14.8 °F 30.37 in Calm     88% 0.00 in 0 W/m2
07:18 17.7 °F 14.8 °F 30.37 in Calm     88% 0.00 in 0 W/m2
07:24 17.6 °F 14.7 °F 30.37 in Calm     88% 0.00 in 0 W/m2
07:30 17.5 °F 14.6 °F 30.37 in Calm     88% 0.00 in 5 W/m2
07:36 17.7 °F 15.0 °F 30.37 in Calm     89% 0.00 in 7 W/m2
07:42 18.1 °F 15.4 °F 30.37 in Calm     89% 0.00 in 9 W/m2
07:48 18.2 °F 15.5 °F 30.37 in Calm     89% 0.00 in 12 W/m2
07:54 18.3 °F 15.6 °F 30.37 in Calm     89% 0.00 in 16 W/m2
08:00 18.5 °F 15.8 °F 30.37 in Calm     89% 0.00 in 21 W/m2
08:06 18.6 °F 15.9 °F 30.37 in Calm     89% 0.00 in 26 W/m2
08:12 18.7 °F 16.0 °F 30.37 in Calm     89% 0.00 in 28 W/m2
08:18 18.8 °F 16.1 °F 30.38 in Calm     89% 0.00 in 28 W/m2
08:24 18.9 °F 16.2 °F 30.38 in Calm     89% 0.00 in 33 W/m2
08:30 19.1 °F 16.4 °F 30.38 in Calm     89% 0.00 in 62 W/m2
08:36 19.5 °F 16.8 °F 30.38 in Calm     89% 0.00 in 90 W/m2
08:42 20.1 °F 17.4 °F 30.37 in Calm     89% 0.00 in 132 W/m2
08:48 20.9 °F 18.2 °F 30.37 in Calm     89% 0.00 in 139 W/m2
08:54 21.6 °F 18.9 °F 30.38 in Calm     89% 0.00 in 139 W/m2
09:00 22.3 °F 19.3 °F 30.37 in Calm     88% 0.00 in 160 W/m2
09:06 23.1 °F 19.8 °F 30.37 in Calm     87% 0.00 in 178 W/m2
09:12 24.0 °F 20.1 °F 30.37 in Calm     85% 0.00 in 197 W/m2
09:18 25.2 °F 20.2 °F 30.37 in Calm     81% 0.00 in 227 W/m2
09:24 26.0 °F 20.4 °F 30.37 in Calm     79% 0.00 in 239 W/m2
09:30 26.7 °F 20.5 °F 30.37 in Calm     77% 0.00 in 234 W/m2
09:36 27.1 °F 20.2 °F 30.37 in SW 1.0 mph 1.0 mph 75% 0.00 in 264 W/m2
09:42 28.0 °F 20.8 °F 30.38 in SW 1.0 mph 1.0 mph 74% 0.00 in 264 W/m2
09:48 28.2 °F 21.0 °F 30.38 in SSW 1.0 mph 1.0 mph 74% 0.00 in 269 W/m2
09:52 28.6 °F 21.0 °F 30.38 in Calm     73% 0.00 in 272 W/m2
09:58 29.3 °F 21.7 °F 30.37 in Calm     73% 0.00 in 294 W/m2
10:04 29.2 °F 21.3 °F 30.37 in Calm     72% 0.00 in 313 W/m2
10:10 30.3 °F 22.7 °F 30.37 in Calm     73% 0.00 in 301 W/m2
10:16 31.1 °F 22.5 °F 30.37 in Calm     70% 0.00 in 316 W/m2
10:22 32.0 °F 23.0 °F 30.38 in South 1.0 mph 2.0 mph 69% 0.00 in 332 W/m2
10:28 32.7 °F 23.6 °F 30.37 in South 1.0 mph 2.0 mph 69% 0.00 in 338 W/m2
10:34 33.2 °F 23.1 °F 30.37 in SW 1.0 mph 4.0 mph 66% 0.00 in 343 W/m2
10:40 33.6 °F 23.1 °F 30.37 in SSW 1.0 mph 1.0 mph 65% 0.00 in 355 W/m2
10:46 34.4 °F 23.5 °F 30.37 in SW 1.0 mph 1.0 mph 64% 0.00 in 336 W/m2
10:52 34.6 °F 23.7 °F 30.37 in SW 1.0 mph 1.0 mph 64% 0.00 in 348 W/m2
11:04 34.6 °F 22.9 °F 30.37 in SW 2.0 mph 2.0 mph 62% 0.00 in 404 W/m2
11:09 35.2 °F 23.1 °F 30.37 in SW 1.0 mph 2.0 mph 61% 0.00 in 394 W/m2
11:58 36.9 °F 19.5 °F 30.33 in NW 2.0 mph 3.0 mph 49% 0.00 in 380 W/m2
12:32 38.6 °F 19.1 °F 30.31 in WNW 2.0 mph 3.0 mph 45% 0.00 in 411 W/m2
14:06 39.2 °F 16.9 °F 30.29 in WNW 2.0 mph 3.0 mph 40% 0.00 in 420 W/m2
14:10 39.8 °F 18.5 °F 30.28 in WNW 2.0 mph 3.0 mph 42% 0.00 in 431 W/m2
15:09 39.6 °F 20.0 °F 30.27 in WSW 1.0 mph 2.0 mph 45% 0.00 in 200 W/m2
15:26 39.6 °F 20.5 °F 30.27 in Calm   1.0 mph 46% 0.00 in 130 W/m2
16:29 37.7 °F 21.2 °F 30.28 in Calm     51% 0.00 in 19 W/m2
16:30 37.6 °F 21.5 °F 30.28 in Calm     52% 0.00 in 16 W/m2
16:32 37.4 °F 21.4 °F 30.28 in Calm     52% 0.00 in 14 W/m2
16:34 37.2 °F 21.6 °F 30.28 in Calm     53% 0.00 in 12 W/m2
16:36 36.9 °F 21.8 °F 30.27 in Calm     54% 0.00 in 9 W/m2
16:42 36.1 °F 21.9 °F 30.27 in Calm     56% 0.00 in 5 W/m2
16:48 35.7 °F 21.1 °F 30.27 in Calm     55% 0.00 in 5 W/m2
16:54 35.4 °F 20.8 °F 30.27 in Calm     55% 0.00 in 0 W/m2
16:58 35.2 °F 21.5 °F 30.27 in Calm     57% 0.00 in 0 W/m2
17:04 34.8 °F 21.9 °F 30.27 in Calm     59% 0.00 in 0 W/m2
17:10 34.4 °F 22.3 °F 30.27 in Calm     61% 0.00 in 0 W/m2
17:12 34.2 °F 22.1 °F 30.27 in Calm     61% 0.00 in 0 W/m2
17:18 33.7 °F 22.4 °F 30.27 in Calm     63% 0.00 in 0 W/m2
17:24 33.2 °F 22.0 °F 30.27 in Calm     63% 0.00 in 0 W/m2
17:30 32.9 °F 21.7 °F 30.27 in Calm     63% 0.00 in 0 W/m2
17:36 32.7 °F 22.2 °F 30.27 in Calm     65% 0.00 in 0 W/m2
17:42 32.4 °F 21.9 °F 30.27 in Calm     65% 0.00 in 0 W/m2
17:44 32.3 °F 22.2 °F 30.27 in Calm     66% 0.00 in 0 W/m2
17:50 32.1 °F 21.7 °F 30.27 in Calm     65% 0.00 in 0 W/m2
17:56 31.9 °F 21.1 °F 30.26 in Calm     64% 0.00 in 0 W/m2
18:02 31.7 °F 20.9 °F 30.26 in Calm     64% 0.00 in 0 W/m2
18:08 31.6 °F 21.9 °F 30.26 in Calm     67% 0.00 in 0 W/m2
18:14 31.4 °F 22.1 °F 30.26 in Calm     68% 0.00 in 0 W/m2
18:20 31.1 °F 21.4 °F 30.26 in Calm     67% 0.00 in 0 W/m2
18:26 31.0 °F 21.0 °F 30.26 in Calm     66% 0.00 in 0 W/m2
18:32 30.9 °F 21.2 °F 30.26 in Calm     67% 0.00 in 0 W/m2
18:38 30.8 °F 20.8 °F 30.26 in Calm     66% 0.00 in 0 W/m2
18:44 30.7 °F 21.4 °F 30.26 in Calm     68% 0.00 in 0 W/m2
18:50 30.5 °F 21.5 °F 30.26 in Calm     69% 0.00 in 0 W/m2
18:56 30.3 °F 21.3 °F 30.26 in Calm     69% 0.00 in 0 W/m2
19:02 30.0 °F 21.4 °F 30.26 in Calm     70% 0.00 in 0 W/m2
19:08 29.7 °F 21.1 °F 30.26 in Calm     70% 0.00 in 0 W/m2
19:14 29.5 °F 20.9 °F 30.26 in Calm     70% 0.00 in 0 W/m2
19:20 29.4 °F 21.5 °F 30.26 in Calm     72% 0.00 in 0 W/m2
19:26 29.2 °F 21.6 °F 30.26 in Calm     73% 0.00 in 0 W/m2
19:32 29.0 °F 21.7 °F 30.26 in Calm     74% 0.00 in 0 W/m2
19:38 28.8 °F 21.6 °F 30.26 in Calm     74% 0.00 in 0 W/m2
19:44 28.6 °F 21.4 °F 30.26 in Calm     74% 0.00 in 0 W/m2
19:50 28.4 °F 21.2 °F 30.26 in Calm     74% 0.00 in 0 W/m2
19:56 28.3 °F 21.1 °F 30.26 in Calm     74% 0.00 in 0 W/m2
20:02 28.2 °F 21.0 °F 30.26 in Calm     74% 0.00 in 0 W/m2
20:08 28.2 °F 21.0 °F 30.26 in Calm     74% 0.00 in 0 W/m2
20:14 28.2 °F 21.3 °F 30.26 in Calm     75% 0.00 in 0 W/m2
20:20 28.1 °F 21.2 °F 30.25 in Calm     75% 0.00 in 0 W/m2
20:26 28.0 °F 20.8 °F 30.25 in Calm     74% 0.00 in 0 W/m2
20:32 28.0 °F 21.1 °F 30.25 in Calm     75% 0.00 in 0 W/m2
20:38 27.8 °F 21.2 °F 30.25 in Calm     76% 0.00 in 0 W/m2
20:44 27.6 °F 21.3 °F 30.26 in Calm     77% 0.00 in 0 W/m2
20:50 27.4 °F 21.4 °F 30.26 in Calm     78% 0.00 in 0 W/m2
20:56 27.3 °F 21.6 °F 30.25 in Calm     79% 0.00 in 0 W/m2
21:02 27.1 °F 21.5 °F 30.25 in Calm     79% 0.00 in 0 W/m2
21:08 27.2 °F 22.1 °F 30.25 in Calm     81% 0.00 in 0 W/m2
21:14 27.2 °F 22.1 °F 30.25 in Calm     81% 0.00 in 0 W/m2
21:20 27.1 °F 21.7 °F 30.25 in Calm     80% 0.00 in 0 W/m2
21:26 26.9 °F 21.6 °F 30.25 in Calm     80% 0.00 in 0 W/m2
21:32 26.9 °F 21.6 °F 30.25 in Calm     80% 0.00 in 0 W/m2
21:38 26.9 °F 21.0 °F 30.24 in Calm     78% 0.00 in 0 W/m2
21:44 26.9 °F 21.0 °F 30.24 in Calm     78% 0.00 in 0 W/m2
21:50 26.8 °F 20.9 °F 30.24 in Calm     78% 0.00 in 0 W/m2
21:56 26.6 °F 20.7 °F 30.24 in Calm     78% 0.00 in 0 W/m2
22:02 26.5 °F 20.6 °F 30.24 in Calm     78% 0.00 in 0 W/m2
22:08 26.3 °F 20.7 °F 30.24 in Calm     79% 0.00 in 0 W/m2
22:14 26.3 °F 21.0 °F 30.23 in Calm     80% 0.00 in 0 W/m2
22:20 26.2 °F 21.5 °F 30.24 in Calm     82% 0.00 in 0 W/m2
22:26 26.1 °F 21.4 °F 30.24 in Calm     82% 0.00 in 0 W/m2
22:32 26.0 °F 21.5 °F 30.23 in Calm     83% 0.00 in 0 W/m2
22:38 25.9 °F 21.4 °F 30.23 in Calm     83% 0.00 in 0 W/m2
22:44 26.1 °F 21.9 °F 30.23 in Calm   1.0 mph 84% 0.00 in 0 W/m2
22:50 26.3 °F 22.4 °F 30.23 in Calm     85% 0.00 in 0 W/m2
22:56 26.4 °F 22.5 °F 30.23 in Calm     85% 0.00 in 0 W/m2
23:02 26.3 °F 22.1 °F 30.23 in Calm     84% 0.00 in 0 W/m2
23:08 26.2 °F 22.0 °F 30.23 in Calm     84% 0.00 in 0 W/m2
23:14 26.1 °F 22.2 °F 30.23 in Calm     85% 0.00 in 0 W/m2
23:20 26.0 °F 22.1 °F 30.23 in Calm     85% 0.00 in 0 W/m2
23:26 25.8 °F 21.6 °F 30.22 in Calm     84% 0.00 in 0 W/m2
23:32 25.7 °F 21.5 °F 30.22 in Calm     84% 0.00 in 0 W/m2
23:38 25.5 °F 21.3 °F 30.22 in Calm     84% 0.00 in 0 W/m2
23:44 25.4 °F 21.2 °F 30.22 in Calm     84% 0.00 in 0 W/m2
23:50 25.1 °F 20.9 °F 30.22 in Calm     84% 0.00 in 0 W/m2
23:56 24.9 °F 20.8 °F 30.22 in Calm     84% 0.00 in 0 W/m2
Country Meadow, Clay, NY, USA
Compliments of Weather Underground - 2 mb